Time,TemperatureF,DewpointF,PressureIn,WindDirection,WindDirectionDegrees,WindSpeedMPH,WindSpeedGustMPH,Humidity,HourlyPrecipIn,Conditions,Clouds,dailyrainin,SoftwareType,DateUTC
2013-06-17 00:14:00,73.3,68.0,30.00,WNW,294,0.0,0.0,82,0.00,,,0.00,weatherlink.com 1.10,2013-06-17 04:14:00,
2013-06-17 00:29:00,73.0,68.0,30.00,West,266,0.0,0.0,83,0.00,,,0.00,weatherlink.com 1.10,2013-06-17 04:29:00,
2013-06-17 00:44:00,73.2,67.0,30.00,West,266,0.0,0.0,82,0.00,,,0.00,weatherlink.com 1.10,2013-06-17 04:44:00,
2013-06-17 00:59:00,73.3,68.0,30.00,West,266,0.0,0.0,82,0.00,,,0.00,weatherlink.com 1.10,2013-06-17 04:59:00,
2013-06-17 01:14:00,73.2,67.0,30.00,West,266,0.0,0.0,82,0.00,,,0.00,weatherlink.com 1.10,2013-06-17 05:14:00,
2013-06-17 01:29:00,72.9,68.0,30.00,West,266,0.0,0.0,83,0.00,,,0.00,weatherlink.com 1.10,2013-06-17 05:29:00,
2013-06-17 01:44:00,72.8,67.0,30.00,West,266,0.0,0.0,83,0.00,,,0.00,weatherlink.com 1.10,2013-06-17 05:44:00,
2013-06-17 01:59:00,72.4,67.0,30.00,West,266,0.0,0.0,84,0.00,,,0.00,weatherlink.com 1.10,2013-06-17 05:59:00,
2013-06-17 02:14:00,72.2,67.0,29.99,West,266,0.0,0.0,84,0.00,,,0.00,weatherlink.com 1.10,2013-06-17 06:14:00,
2013-06-17 02:29:00,71.9,67.0,29.99,West,266,0.0,0.0,85,0.00,,,0.00,weatherlink.com 1.10,2013-06-17 06:29:00,
2013-06-17 02:44:00,72.1,67.0,29.99,West,266,0.0,0.0,84,0.00,,,0.00,weatherlink.com 1.10,2013-06-17 06:44:00,
2013-06-17 02:59:00,72.2,67.0,29.98,SW,226,0.0,0.0,84,0.00,,,0.00,weatherlink.com 1.10,2013-06-17 06:59:00,
2013-06-17 03:14:00,71.9,67.0,29.98,West,264,0.0,0.0,84,0.00,,,0.00,weatherlink.com 1.10,2013-06-17 07:14:00,
2013-06-17 03:29:00,71.9,67.0,29.99,SSW,205,0.0,0.0,84,0.00,,,0.00,weatherlink.com 1.10,2013-06-17 07:29:00,
2013-06-17 03:44:00,71.9,67.0,29.99,West,266,0.0,2.0,85,0.00,,,0.00,weatherlink.com 1.10,2013-06-17 07:44:00,
2013-06-17 04:00:00,71.8,67.0,30.00,NE,38,1.0,2.0,85,0.00,,,0.00,weatherlink.com 1.10,2013-06-17 08:00:00,
2013-06-17 04:14:00,71.6,67.0,29.99,West,279,0.0,6.0,85,0.00,,,0.00,weatherlink.com 1.10,2013-06-17 08:14:00,
2013-06-17 04:29:00,71.3,67.0,29.99,West,271,0.0,2.0,86,0.00,,,0.00,weatherlink.com 1.10,2013-06-17 08:29:00,
2013-06-17 04:45:00,70.8,67.0,30.00,SW,234,0.0,1.0,87,0.00,,,0.00,weatherlink.com 1.10,2013-06-17 08:45:00,
2013-06-17 05:00:00,70.5,67.0,29.99,SW,234,0.0,1.0,87,0.00,,,0.00,weatherlink.com 1.10,2013-06-17 09:00:00,
2013-06-17 05:16:00,70.3,66.0,29.99,WSW,258,1.0,2.0,87,0.00,,,0.00,weatherlink.com 1.10,2013-06-17 09:16:00,
2013-06-17 05:30:00,70.6,67.0,29.99,SW,225,1.0,4.0,87,0.00,,,0.00,weatherlink.com 1.10,2013-06-17 09:30:00,
2013-06-17 05:45:00,71.0,67.0,30.00,West,260,2.0,4.0,87,0.00,,,0.00,weatherlink.com 1.10,2013-06-17 09:45:00,
2013-06-17 06:00:00,71.0,67.0,29.99,WSW,252,0.0,3.0,88,0.00,,,0.00,weatherlink.com 1.10,2013-06-17 10:00:00,
2013-06-17 06:15:00,70.9,67.0,29.98,WNW,284,2.0,3.0,88,0.00,,,0.00,weatherlink.com 1.10,2013-06-17 10:15:00,
2013-06-17 06:30:00,71.0,67.0,29.97,West,274,0.0,3.0,88,0.00,,,0.00,weatherlink.com 1.10,2013-06-17 10:30:00,
2013-06-17 06:45:00,71.0,67.0,29.96,WNW,293,0.0,2.0,88,0.00,,,0.00,weatherlink.com 1.10,2013-06-17 10:45:00,
2013-06-17 07:00:00,70.7,67.0,29.98,WNW,293,1.0,1.0,88,0.00,,,0.00,weatherlink.com 1.10,2013-06-17 11:00:00,
2013-06-17 07:15:00,70.8,67.0,29.98,WNW,293,0.0,1.0,88,0.00,,,0.00,weatherlink.com 1.10,2013-06-17 11:15:00,
2013-06-17 07:30:00,71.0,67.0,29.98,WNW,300,1.0,2.0,88,0.00,,,0.00,weatherlink.com 1.10,2013-06-17 11:30:00,
2013-06-17 07:45:00,71.5,68.0,29.99,WNW,294,0.0,2.0,88,0.00,,,0.00,weatherlink.com 1.10,2013-06-17 11:45:00,
2013-06-17 08:00:00,71.9,68.0,29.99,WNW,294,0.0,2.0,88,0.00,,,0.00,weatherlink.com 1.10,2013-06-17 12:00:00,
2013-06-17 08:15:00,72.2,69.0,29.99,SW,235,1.0,5.0,88,0.00,,,0.00,weatherlink.com 1.10,2013-06-17 12:15:00,
2013-06-17 08:31:00,72.6,69.0,29.99,WNW,293,0.0,2.0,88,0.00,,,0.00,weatherlink.com 1.10,2013-06-17 12:31:00,
2013-06-17 08:45:00,72.7,69.0,29.99,East,95,1.0,2.0,87,0.00,,,0.00,weatherlink.com 1.10,2013-06-17 12:45:00,
2013-06-17 09:00:00,72.5,69.0,29.99,WNW,286,2.0,5.0,87,0.00,,,0.00,weatherlink.com 1.10,2013-06-17 13:00:00,
2013-06-17 09:15:00,74.1,69.0,29.99,South,173,0.0,4.0,85,0.00,,,0.00,weatherlink.com 1.10,2013-06-17 13:15:00,
2013-06-17 09:30:00,73.8,69.0,29.98,WNW,287,1.0,4.0,85,0.00,,,0.00,weatherlink.com 1.10,2013-06-17 13:30:00,
2013-06-17 09:45:00,75.4,70.0,29.98,South,172,1.0,4.0,84,0.00,,,0.00,weatherlink.com 1.10,2013-06-17 13:45:00,
2013-06-17 10:00:00,76.7,71.0,29.98,SW,218,2.0,4.0,81,0.00,,,0.00,weatherlink.com 1.10,2013-06-17 14:00:00,
2013-06-17 10:15:00,77.5,70.0,29.97,WNW,300,5.0,8.0,78,0.00,,,0.00,weatherlink.com 1.10,2013-06-17 14:15:00,
2013-06-17 10:30:00,77.5,71.0,29.97,West,268,3.0,5.0,80,0.00,,,0.00,weatherlink.com 1.10,2013-06-17 14:30:00,
2013-06-17 10:45:00,78.7,71.0,29.97,SSE,154,1.0,4.0,78,0.00,,,0.00,weatherlink.com 1.10,2013-06-17 14:45:00,
2013-06-17 11:01:00,79.4,71.0,29.97,SSW,212,1.0,6.0,76,0.00,,,0.00,weatherlink.com 1.10,2013-06-17 15:01:00,
2013-06-17 11:15:00,80.3,72.0,29.97,South,174,1.0,6.0,76,0.00,,,0.00,weatherlink.com 1.10,2013-06-17 15:15:00,
2013-06-17 11:31:00,79.5,71.0,29.97,WSW,257,1.0,6.0,74,0.00,,,0.00,weatherlink.com 1.10,2013-06-17 15:31:00,
2013-06-17 11:45:00,79.3,71.0,29.97,West,273,2.0,5.0,76,0.00,,,0.00,weatherlink.com 1.10,2013-06-17 15:45:00,
2013-06-17 12:00:00,79.0,70.0,29.97,WNW,290,5.0,8.0,75,0.00,,,0.00,weatherlink.com 1.10,2013-06-17 16:00:00,
2013-06-17 12:15:00,79.4,71.0,29.98,SSE,166,2.0,6.0,76,0.00,,,0.00,weatherlink.com 1.10,2013-06-17 16:15:00,
2013-06-17 12:30:00,79.4,70.0,29.97,WSW,254,2.0,9.0,72,0.00,,,0.00,weatherlink.com 1.10,2013-06-17 16:30:00,
2013-06-17 12:45:00,79.8,72.0,29.97,NE,46,1.0,5.0,76,0.00,,,0.00,weatherlink.com 1.10,2013-06-17 16:45:00,
2013-06-17 13:00:00,79.7,70.0,29.97,SW,217,1.0,6.0,73,0.00,,,0.00,weatherlink.com 1.10,2013-06-17 17:00:00,
2013-06-17 13:15:00,79.6,71.0,29.97,West,262,2.0,5.0,74,0.00,,,0.00,weatherlink.com 1.10,2013-06-17 17:15:00,
2013-06-17 13:30:00,80.1,72.0,29.97,WNW,296,1.0,4.0,76,0.00,,,0.00,weatherlink.com 1.10,2013-06-17 17:30:00,
2013-06-17 13:45:00,80.1,72.0,29.97,West,263,2.0,3.0,76,0.00,,,0.00,weatherlink.com 1.10,2013-06-17 17:45:00,
2013-06-17 14:00:00,81.3,73.0,29.96,SW,225,0.0,6.0,75,0.00,,,0.00,weatherlink.com 1.10,2013-06-17 18:00:00,
2013-06-17 14:15:00,81.6,72.0,29.95,WSW,245,0.0,6.0,73,0.00,,,0.00,weatherlink.com 1.10,2013-06-17 18:15:00,
2013-06-17 14:30:00,82.1,73.0,29.95,East,83,0.0,6.0,74,0.00,,,0.00,weatherlink.com 1.10,2013-06-17 18:30:00,
2013-06-17 14:45:00,81.2,73.0,29.95,SW,219,1.0,6.0,77,0.00,,,0.00,weatherlink.com 1.10,2013-06-17 18:45:00,
2013-06-17 15:00:00,81.8,72.0,29.94,WNW,293,3.0,7.0,72,0.00,,,0.00,weatherlink.com 1.10,2013-06-17 19:00:00,
2013-06-17 15:16:00,84.3,74.0,29.93,West,271,2.0,6.0,71,0.00,,,0.00,weatherlink.com 1.10,2013-06-17 19:16:00,
2013-06-17 15:31:00,81.2,73.0,29.93,SW,215,1.0,6.0,75,0.00,,,0.00,weatherlink.com 1.10,2013-06-17 19:31:00,
2013-06-17 15:46:00,80.6,73.0,29.93,SW,217,0.0,5.0,77,0.00,,,0.00,weatherlink.com 1.10,2013-06-17 19:46:00,
2013-06-17 16:01:00,79.8,73.0,29.92,West,266,1.0,2.0,79,0.00,,,0.00,weatherlink.com 1.10,2013-06-17 20:01:00,
2013-06-17 16:16:00,78.9,73.0,29.91,West,269,1.0,2.0,83,0.00,,,0.00,weatherlink.com 1.10,2013-06-17 20:16:00,
2013-06-17 16:31:00,79.5,73.0,29.92,NNW,335,1.0,3.0,81,0.00,,,0.00,weatherlink.com 1.10,2013-06-17 20:31:00,
2013-06-17 16:46:00,75.4,69.0,29.93,ENE,78,4.0,9.0,81,0.00,,,0.00,weatherlink.com 1.10,2013-06-17 20:46:00,
2013-06-17 17:01:00,74.6,70.0,29.92,NE,34,2.0,5.0,85,0.00,,,0.00,weatherlink.com 1.10,2013-06-17 21:01:00,
2013-06-17 17:16:00,73.1,69.0,29.93,NE,49,2.0,2.0,87,0.00,,,0.00,weatherlink.com 1.10,2013-06-17 21:16:00,
2013-06-17 17:31:00,72.4,68.0,29.93,NNE,26,0.0,2.0,87,0.01,,,0.01,weatherlink.com 1.10,2013-06-17 21:31:00,
2013-06-17 17:46:00,72.3,68.0,29.92,NNE,30,1.0,2.0,85,0.03,,,0.03,weatherlink.com 1.10,2013-06-17 21:46:00,
2013-06-17 18:01:00,72.5,68.0,29.92,East,87,0.0,2.0,86,0.06,,,0.06,weatherlink.com 1.10,2013-06-17 22:01:00,
2013-06-17 18:16:00,73.4,70.0,29.91,West,277,0.0,2.0,88,0.05,,,0.06,weatherlink.com 1.10,2013-06-17 22:16:00,
2013-06-17 18:31:00,75.0,71.0,29.91,NNE,28,0.0,3.0,87,0.05,,,0.06,weatherlink.com 1.10,2013-06-17 22:31:00,
2013-06-17 18:46:00,73.8,70.0,29.92,NNE,26,0.0,2.0,88,0.03,,,0.06,weatherlink.com 1.10,2013-06-17 22:46:00,
2013-06-17 19:01:00,74.3,70.0,29.92,NNE,26,0.0,1.0,87,0.00,,,0.06,weatherlink.com 1.10,2013-06-17 23:01:00,
2013-06-17 19:16:00,73.8,70.0,29.93,NNE,26,0.0,1.0,87,0.00,,,0.06,weatherlink.com 1.10,2013-06-17 23:16:00,
2013-06-17 19:31:00,73.9,70.0,29.92,NNE,26,0.0,1.0,87,0.00,,,0.06,weatherlink.com 1.10,2013-06-17 23:31:00,
2013-06-17 19:46:00,74.1,70.0,29.91,NNE,26,0.0,1.0,88,0.00,,,0.06,weatherlink.com 1.10,2013-06-17 23:46:00,
2013-06-17 20:01:00,72.9,69.0,29.92,NNE,26,0.0,1.0,88,0.00,,,0.06,weatherlink.com 1.10,2013-06-18 00:01:00,
2013-06-17 20:16:00,72.2,68.0,29.92,NNE,26,0.0,1.0,87,0.00,,,0.06,weatherlink.com 1.10,2013-06-18 00:16:00,
2013-06-17 20:31:00,71.8,68.0,29.92,NNE,26,0.0,1.0,86,0.00,,,0.06,weatherlink.com 1.10,2013-06-18 00:31:00,
2013-06-17 20:46:00,71.6,67.0,29.92,NNE,26,0.0,1.0,86,0.00,,,0.06,weatherlink.com 1.10,2013-06-18 00:46:00,
2013-06-17 21:01:00,71.1,66.0,29.92,NNE,26,0.0,1.0,85,0.00,,,0.06,weatherlink.com 1.10,2013-06-18 01:01:00,
2013-06-17 21:16:00,71.1,66.0,29.93,NE,46,0.0,2.0,85,0.00,,,0.06,weatherlink.com 1.10,2013-06-18 01:16:00,
2013-06-17 21:31:00,70.7,66.0,29.93,NNE,14,0.0,1.0,85,0.00,,,0.06,weatherlink.com 1.10,2013-06-18 01:31:00,
2013-06-17 21:46:00,70.4,66.0,29.93,SE,137,0.0,3.0,86,0.00,,,0.06,weatherlink.com 1.10,2013-06-18 01:46:00,
2013-06-17 22:01:00,70.0,66.0,29.94,SE,137,0.0,1.0,86,0.00,,,0.06,weatherlink.com 1.10,2013-06-18 02:01:00,
2013-06-17 22:16:00,70.0,66.0,29.95,South,188,0.0,2.0,86,0.00,,,0.06,weatherlink.com 1.10,2013-06-18 02:16:00,
2013-06-17 22:31:00,69.9,65.0,29.95,South,188,0.0,0.0,85,0.00,,,0.06,weatherlink.com 1.10,2013-06-18 02:31:00,
2013-06-17 22:46:00,69.7,65.0,29.95,South,188,0.0,1.0,85,0.00,,,0.06,weatherlink.com 1.10,2013-06-18 02:46:00,
2013-06-17 23:01:00,69.9,65.0,29.95,South,188,0.0,1.0,85,0.00,,,0.06,weatherlink.com 1.10,2013-06-18 03:01:00,
2013-06-17 23:16:00,69.8,65.0,29.95,South,188,0.0,0.0,85,0.02,,,0.08,weatherlink.com 1.10,2013-06-18 03:16:00,
2013-06-17 23:31:00,69.8,65.0,29.95,South,188,0.0,1.0,85,0.06,,,0.12,weatherlink.com 1.10,2013-06-18 03:31:00,
2013-06-17 23:46:00,70.0,66.0,29.95,South,188,0.0,1.0,86,0.10,,,0.16,weatherlink.com 1.10,2013-06-18 03:46:00,